This is the latest recevied weather packets stored in our database for station/object W4DEX-2. If no packets are shown the sender has not sent any weather packets the latest 10 day(s).
| Time | Temp. | Humidity | Pressure | Rain* | Wind** | Luminosity | Snow |
|---|---|---|---|---|---|---|---|
| 1777444502 | 13.89° C | 87% | 1014.1 hPa | 0 mm | 4.47 m/s, 175° | - | - |
| 1777443602 | 14.44° C | 87% | 1014.8 hPa | 0 mm | 5.36 m/s, 175° | - | - |
| 1777443302 | 14.44° C | 87% | 1014.7 hPa | 0 mm | 4.92 m/s, 178° | - | - |
| 1777443002 | 14.44° C | 87% | 1014.7 hPa | 0 mm | 4.47 m/s, 176° | - | - |
| 1777442703 | 14.44° C | 86% | 1014.5 hPa | 0 mm | 4.92 m/s, 177° | - | - |
| 1777442402 | 14.44° C | 86% | 1014.8 hPa | 0 mm | 5.36 m/s, 175° | - | - |
| 1777442103 | 14.44° C | 86% | 1014.4 hPa | 0 mm | 4.92 m/s, 174° | - | - |
| 1777441502 | 14.44° C | 85% | 1014.8 hPa | 0 mm | 5.36 m/s, 176° | - | - |
| 1777441202 | 14.44° C | 85% | 1014.9 hPa | 0 mm | 5.36 m/s, 177° | - | - |
| 1777440904 | 14.44° C | 85% | 1014.4 hPa | 0 mm | 4.92 m/s, 180° | - | - |
| 1777440602 | 15° C | 85% | 1014.5 hPa | 0 mm | 5.36 m/s, 178° | - | - |
| 1777440304 | 15° C | 85% | 1014.5 hPa | 0 mm | 5.36 m/s, 174° | - | - |
| 1777439702 | 14.44° C | 85% | 1014.5 hPa | 0 mm | 5.81 m/s, 174° | - | - |
| 1777439402 | 14.44° C | 85% | 1014.4 hPa | 0 mm | 4.92 m/s, 178° | - | - |
| 1777439103 | 15° C | 85% | 1014.5 hPa | 0 mm | 4.92 m/s, 175° | - | - |
| 1777438502 | 15° C | 84% | 1014.8 hPa | 0 mm | 4.92 m/s, 176° | - | - |
| 1777438202 | 15° C | 84% | 1015.3 hPa | 0 mm | 4.92 m/s, 177° | - | - |
| 1777437903 | 15° C | 84% | 1015.6 hPa | 0 mm | 4.92 m/s, 174° | - | - |
| 1777437302 | 15° C | 84% | 1015.9 hPa | 0 mm | 4.92 m/s, 176° | - | - |
| 1777436702 | 15° C | 84% | 1015.9 hPa | 0 mm | 4.92 m/s, 175° | - | - |
| 1777436402 | 15° C | 84% | 1016 hPa | 0 mm | 4.92 m/s, 175° | - | - |
| 1777435803 | 15° C | 83% | 1016.1 hPa | 0 mm | 4.92 m/s, 175° | - | - |
| 1777435502 | 15° C | 83% | 1016.3 hPa | 0 mm | 4.92 m/s, 176° | - | - |
| 1777434903 | 15° C | 83% | 1016.6 hPa | 0 mm | 4.92 m/s, 174° | - | - |
| 1777434602 | 15.56° C | 82% | 1016.8 hPa | 0 mm | 4.92 m/s, 174° | - | - |
* Rain latest hour (hover to see other rain measurements)
** Current wind speed in m/s (hover to see current wind gust speed)